createdAt,value
2022-11-14T00:02:09.633Z,101544.03
2022-11-14T00:04:55.791Z,101545.75
2022-11-14T00:07:41.814Z,101537.72
2022-11-14T00:10:27.395Z,101542.81
2022-11-14T00:13:14.142Z,101542.06
2022-11-14T00:16:00.068Z,101543.81
2022-11-14T00:18:46.001Z,101542.94
2022-11-14T00:21:32.187Z,101543.84
2022-11-14T00:24:18.115Z,101548.16
2022-11-14T00:27:03.796Z,101543.81
2022-11-14T00:29:49.534Z,101540.28
2022-11-14T00:32:35.188Z,101547.28
2022-11-14T00:35:21.079Z,101547.13
2022-11-14T00:38:06.596Z,101546.28
2022-11-14T00:40:52.565Z,101549.78
2022-11-14T00:43:38.575Z,101542.69
2022-11-14T00:46:24.225Z,101540.88
2022-11-14T00:49:10.421Z,101538.94
2022-11-14T00:51:56.022Z,101542.63
2022-11-14T00:54:42.058Z,101546.25
2022-11-14T00:57:28.085Z,101543.63
2022-11-14T01:00:14.448Z,101540.31
2022-11-14T01:03:00.317Z,101543.75
2022-11-14T01:05:48.539Z,101537.47
2022-11-14T01:08:34.404Z,101536.59
2022-11-14T01:11:22.160Z,101533.94
2022-11-14T01:14:08.883Z,101534.91
2022-11-14T01:16:54.584Z,101534.97
2022-11-14T01:19:41.283Z,101539.44
2022-11-14T01:22:27.202Z,101523.56
2022-11-14T01:25:13.143Z,101526.22
2022-11-14T01:27:59.040Z,101531.56
2022-11-14T01:30:45.396Z,101523.56
2022-11-14T01:33:31.059Z,101518.25
2022-11-14T01:36:17.159Z,101511.09
2022-11-14T01:39:03.328Z,101519.00
2022-11-14T01:41:49.330Z,101518.09
2022-11-14T01:44:44.257Z,101515.56
2022-11-14T01:47:33.308Z,101514.41
2022-11-14T01:50:19.547Z,101510.88
2022-11-14T01:53:05.571Z,101508.13
2022-11-14T01:55:54.307Z,101502.84
2022-11-14T01:58:44.128Z,101503.75
2022-11-14T02:01:34.248Z,101498.28
2022-11-14T02:04:28.900Z,101493.94
2022-11-14T02:07:15.289Z,101499.28
2022-11-14T02:10:05.545Z,101495.88
2022-11-14T02:12:52.401Z,101503.69
2022-11-14T02:15:38.916Z,101500.16
2022-11-14T02:18:24.988Z,101496.66
2022-11-14T02:21:11.280Z,101496.69
2022-11-14T02:23:57.349Z,101501.06
2022-11-14T02:26:43.536Z,101487.56
2022-11-14T02:29:32.421Z,101490.34
2022-11-14T02:32:18.604Z,101484.25
2022-11-14T02:35:04.671Z,101489.53
2022-11-14T02:37:50.537Z,101488.47
2022-11-14T02:40:36.199Z,101489.16
2022-11-14T02:43:21.881Z,101489.09
2022-11-14T02:46:07.590Z,101497.16
2022-11-14T02:48:53.386Z,101491.91
2022-11-14T02:51:39.264Z,101497.31
2022-11-14T02:54:25.472Z,101497.25
2022-11-14T02:57:11.085Z,101498.22
2022-11-14T02:59:57.029Z,101502.75
2022-11-14T03:02:42.947Z,101495.63
2022-11-14T03:05:28.648Z,101499.94
2022-11-14T03:08:14.349Z,101500.78
2022-11-14T03:11:10.184Z,101499.09
2022-11-14T03:13:55.879Z,101499.03
2022-11-14T03:16:41.778Z,101497.19
2022-11-14T03:19:27.424Z,101498.28
2022-11-14T03:22:13.223Z,101489.50
2022-11-14T03:24:59.618Z,101483.22
2022-11-14T03:27:45.474Z,101492.19
2022-11-14T03:30:31.474Z,101495.69
2022-11-14T03:33:17.191Z,101494.69
2022-11-14T03:36:04.537Z,101488.72
2022-11-14T03:38:50.144Z,101493.03
2022-11-14T03:41:36.087Z,101501.22
2022-11-14T03:44:22.416Z,101500.28
2022-11-14T03:47:08.280Z,101504.63
2022-11-14T03:49:53.954Z,101491.44
2022-11-14T03:52:39.927Z,101489.72
2022-11-14T03:55:25.727Z,101486.97
2022-11-14T03:58:11.532Z,101479.00
2022-11-14T04:00:57.554Z,101479.00
2022-11-14T04:03:43.479Z,101479.88
2022-11-14T04:06:29.413Z,101477.13
2022-11-14T04:09:14.989Z,101478.97
2022-11-14T04:12:00.757Z,101478.84
2022-11-14T04:14:46.676Z,101480.69
2022-11-14T04:17:37.074Z,101480.78
2022-11-14T04:20:25.582Z,101493.03
2022-11-14T04:23:11.612Z,101482.22
2022-11-14T04:25:57.491Z,101491.22
2022-11-14T04:28:43.233Z,101485.72
2022-11-14T04:31:28.980Z,101483.78
2022-11-14T04:34:14.942Z,101486.34
2022-11-14T04:37:00.766Z,101481.72
2022-11-14T04:39:46.606Z,101482.72
2022-11-14T04:42:32.607Z,101479.06
2022-11-14T04:45:18.318Z,101485.25
2022-11-14T04:48:04.237Z,101479.97
2022-11-14T04:50:49.948Z,101486.28
2022-11-14T04:53:35.847Z,101482.16
2022-11-14T04:56:23.291Z,101474.03
2022-11-14T04:59:09.398Z,101478.53
2022-11-14T05:01:55.415Z,101476.75
2022-11-14T05:04:41.610Z,101480.34
2022-11-14T05:07:27.580Z,101473.38
2022-11-14T05:10:13.687Z,101471.56
2022-11-14T05:12:59.427Z,101468.06
2022-11-14T05:15:45.436Z,101466.41
2022-11-14T05:18:31.588Z,101472.63
2022-11-14T05:21:17.666Z,101470.78
2022-11-14T05:24:03.720Z,101470.84
2022-11-14T05:26:49.710Z,101472.66
2022-11-14T05:29:35.581Z,101461.06
2022-11-14T05:32:22.192Z,101472.56
2022-11-14T05:35:08.401Z,101474.31
2022-11-14T05:37:58.909Z,101466.38
2022-11-14T05:40:45.942Z,101466.47
2022-11-14T05:43:31.964Z,101470.22
2022-11-14T05:46:17.786Z,101473.91
2022-11-14T05:49:03.559Z,101467.75
2022-11-14T05:51:49.581Z,101476.63
2022-11-14T05:54:35.179Z,101474.84
2022-11-14T05:57:21.096Z,101474.00
2022-11-14T06:00:09.429Z,101485.59
2022-11-14T06:02:55.547Z,101488.25
2022-11-14T06:05:41.815Z,101493.56
2022-11-14T06:08:29.808Z,101495.50
2022-11-14T06:11:18.884Z,101502.59
2022-11-14T06:14:10.515Z,101500.84
2022-11-14T06:16:56.708Z,101497.22
2022-11-14T06:19:42.696Z,101506.97
2022-11-14T06:22:37.206Z,101510.53
2022-11-14T06:25:23.170Z,101515.81
2022-11-14T06:28:09.068Z,101513.16
2022-11-14T06:31:03.201Z,101525.56
2022-11-14T06:33:49.008Z,101521.13
2022-11-14T06:36:34.994Z,101524.66
2022-11-14T06:39:20.625Z,101535.25
2022-11-14T06:42:06.265Z,101530.72
2022-11-14T06:44:52.153Z,101530.78
2022-11-14T06:47:37.958Z,101539.63
2022-11-14T06:50:23.478Z,101533.38
2022-11-14T06:53:09.234Z,101544.03
2022-11-14T06:55:59.918Z,101544.88
2022-11-14T06:58:48.742Z,101551.13
2022-11-14T07:01:34.880Z,101538.66
2022-11-14T07:04:20.956Z,101542.25
2022-11-14T07:07:06.560Z,101539.53
2022-11-14T07:09:54.365Z,101551.94
2022-11-14T07:12:40.112Z,101545.66
2022-11-14T07:15:26.084Z,101548.38
2022-11-14T07:18:12.250Z,101551.88
2022-11-14T07:21:05.506Z,101552.72
2022-11-14T07:23:52.089Z,101549.03
2022-11-14T07:26:37.803Z,101557.06
2022-11-14T07:29:23.752Z,101553.44
2022-11-14T07:32:09.452Z,101564.03
2022-11-14T07:35:00.717Z,101560.44
2022-11-14T07:37:47.828Z,101553.41
2022-11-14T07:40:33.993Z,101563.13
2022-11-14T07:43:19.712Z,101554.25
2022-11-14T07:46:08.632Z,101559.63
2022-11-14T07:48:55.117Z,101563.16
2022-11-14T07:51:41.032Z,101557.84
2022-11-14T07:54:27.020Z,101559.59
2022-11-14T07:57:13.083Z,101541.91
2022-11-14T07:59:58.985Z,101557.00
2022-11-14T08:02:46.524Z,101552.44
2022-11-14T08:05:32.604Z,101535.53
2022-11-14T08:08:18.116Z,101545.25
2022-11-14T08:11:05.147Z,101539.84
2022-11-14T08:13:51.483Z,101540.75
2022-11-14T08:16:37.433Z,101535.56
2022-11-14T08:19:23.661Z,101549.72
2022-11-14T08:22:09.937Z,101549.59
2022-11-14T08:24:55.732Z,101539.75
2022-11-14T08:27:41.487Z,101543.16
2022-11-14T08:30:28.016Z,101537.91
2022-11-14T08:33:13.943Z,101541.28
2022-11-14T08:36:04.598Z,101547.38
2022-11-14T08:38:51.752Z,101551.75
2022-11-14T08:41:38.127Z,101543.78
2022-11-14T08:44:23.968Z,101550.72
2022-11-14T08:47:09.770Z,101540.06
2022-11-14T08:49:55.624Z,101549.72
2022-11-14T08:52:41.318Z,101559.34
2022-11-14T08:55:27.320Z,101555.81
2022-11-14T08:58:13.327Z,101552.19
2022-11-14T09:01:01.578Z,101551.31
2022-11-14T09:03:47.704Z,101543.22
2022-11-14T09:06:33.506Z,101546.69
2022-11-14T09:09:19.239Z,101550.41
2022-11-14T09:12:05.406Z,101542.41
2022-11-14T09:14:51.475Z,101540.56
2022-11-14T09:17:37.535Z,101537.78
2022-11-14T09:20:54.904Z,101533.47
2022-11-14T09:23:40.719Z,101542.03
2022-11-14T09:26:26.708Z,101543.72
2022-11-14T09:29:12.320Z,101536.47
2022-11-14T09:31:58.209Z,101541.66
2022-11-14T09:34:45.639Z,101533.69
2022-11-14T09:37:31.549Z,101538.16
2022-11-14T09:40:17.434Z,101536.22
2022-11-14T09:43:23.291Z,101531.72
2022-11-14T09:46:48.693Z,101531.72
2022-11-14T09:49:41.452Z,101524.50
2022-11-14T09:52:36.883Z,101519.84
2022-11-14T09:55:36.874Z,101522.50
2022-11-14T09:58:23.511Z,101523.31
2022-11-14T10:01:29.296Z,101516.84
2022-11-14T10:04:39.576Z,101511.38
2022-11-14T10:07:37.029Z,101506.84
2022-11-14T10:10:37.341Z,101509.25
2022-11-14T10:13:43.021Z,101507.25
2022-11-14T10:16:44.649Z,101502.88
2022-11-14T10:19:55.860Z,101507.31
2022-11-14T10:23:06.316Z,101503.63
2022-11-14T10:25:55.033Z,101497.16
2022-11-14T10:29:10.392Z,101482.72
2022-11-14T10:32:07.305Z,101482.56
2022-11-14T10:35:04.129Z,101478.94
2022-11-14T10:38:08.055Z,101473.53
2022-11-14T10:40:58.559Z,101472.19
2022-11-14T10:43:49.437Z,101465.75
2022-11-14T10:46:41.617Z,101465.78
2022-11-14T10:49:31.758Z,101458.72
2022-11-14T10:52:22.503Z,101465.53
2022-11-14T10:55:15.380Z,101464.44
2022-11-14T10:58:01.541Z,101452.13
2022-11-14T11:00:47.778Z,101453.91
2022-11-14T11:03:42.564Z,101446.59
2022-11-14T11:06:29.487Z,101452.25
2022-11-14T11:09:46.190Z,101447.47
2022-11-14T11:12:44.570Z,101445.41
2022-11-14T11:15:31.816Z,101441.66
2022-11-14T11:18:31.708Z,101438.97
2022-11-14T11:21:23.567Z,101436.41
2022-11-14T11:24:09.389Z,101438.97
2022-11-14T11:27:13.828Z,101433.25
2022-11-14T11:30:21.018Z,101422.38
2022-11-14T11:33:22.396Z,101419.88
2022-11-14T11:36:18.291Z,101412.94
2022-11-14T11:39:03.924Z,101419.72
2022-11-14T11:42:08.880Z,101409.00
2022-11-14T11:45:00.043Z,101403.59
2022-11-14T11:48:01.200Z,101405.00
2022-11-14T11:50:47.983Z,101401.44
2022-11-14T11:54:05.460Z,101400.78
2022-11-14T11:56:58.696Z,101404.50
2022-11-14T11:59:49.661Z,101399.09
2022-11-14T12:02:44.919Z,101400.78
2022-11-14T12:05:47.316Z,101392.81
2022-11-14T12:08:56.727Z,101399.03
2022-11-14T12:11:49.108Z,101394.63
2022-11-14T12:14:51.640Z,101390.81
2022-11-14T12:17:49.602Z,101397.00
2022-11-14T12:20:52.551Z,101392.81
2022-11-14T12:24:00.896Z,101392.56
2022-11-14T12:26:49.431Z,101379.31
2022-11-14T12:29:47.621Z,101388.03
2022-11-14T12:32:53.575Z,101379.88
2022-11-14T12:35:51.337Z,101379.25
2022-11-14T12:38:53.772Z,101376.69
2022-11-14T12:41:40.665Z,101377.59
2022-11-14T12:44:29.640Z,101379.47
2022-11-14T12:47:23.858Z,101368.69
2022-11-14T12:50:38.815Z,101367.00
2022-11-14T12:53:36.993Z,101369.75
2022-11-14T12:56:31.483Z,101367.94
2022-11-14T12:59:35.904Z,101364.41
2022-11-14T13:02:49.311Z,101356.63
2022-11-14T13:06:00.021Z,101361.00
2022-11-14T13:09:06.682Z,101365.38
2022-11-14T13:12:11.416Z,101358.63
2022-11-14T13:15:33.072Z,101346.81
2022-11-14T13:18:41.916Z,101346.38
2022-11-14T13:21:46.613Z,101334.88
2022-11-14T13:25:03.942Z,101327.56
2022-11-14T13:28:07.343Z,101333.59
2022-11-14T13:31:16.674Z,101331.69
2022-11-14T13:34:40.306Z,101326.25
2022-11-14T13:38:13.422Z,101326.44
2022-11-14T13:41:27.290Z,101312.28
2022-11-14T13:44:22.047Z,101322.94
2022-11-14T13:47:25.439Z,101327.97
2022-11-14T13:50:18.955Z,101317.88
2022-11-14T13:53:20.480Z,101319.88
2022-11-14T13:56:31.038Z,101316.47
2022-11-14T13:59:43.964Z,101319.19
2022-11-14T14:03:03.412Z,101307.75
2022-11-14T14:05:54.845Z,101306.66
2022-11-14T14:08:52.752Z,101312.31
2022-11-14T14:11:43.146Z,101315.00
2022-11-14T14:14:55.363Z,101314.28
2022-11-14T14:17:49.609Z,101322.97
2022-11-14T14:20:53.681Z,101314.88
2022-11-14T14:23:56.998Z,101310.38
2022-11-14T14:27:06.176Z,101312.91
2022-11-14T14:30:00.689Z,101305.03
2022-11-14T14:33:06.899Z,101304.41
2022-11-14T14:35:54.514Z,101301.03
2022-11-14T14:38:40.103Z,101300.16
2022-11-14T14:41:31.141Z,101302.78
2022-11-14T14:44:23.361Z,101309.06
2022-11-14T14:47:16.364Z,101305.63
2022-11-14T14:50:06.815Z,101309.34
2022-11-14T14:52:57.657Z,101307.66
2022-11-14T14:55:55.393Z,101302.47
2022-11-14T14:58:41.757Z,101289.16
2022-11-14T15:01:35.159Z,101293.63
2022-11-14T15:04:23.265Z,101308.78
2022-11-14T15:07:25.126Z,101299.91
2022-11-14T15:10:22.348Z,101293.44
2022-11-14T15:13:14.193Z,101300.66
2022-11-14T15:16:01.852Z,101307.13
2022-11-14T15:18:48.896Z,101308.19
2022-11-14T15:21:35.070Z,101304.69
2022-11-14T15:24:23.208Z,101307.41
2022-11-14T15:27:13.276Z,101307.78
2022-11-14T15:30:07.801Z,101289.88
2022-11-14T15:32:55.686Z,101298.00
2022-11-14T15:35:41.528Z,101299.13
2022-11-14T15:38:44.397Z,101306.59
2022-11-14T15:41:32.567Z,101306.72
2022-11-14T15:44:32.637Z,101299.94
2022-11-14T15:47:27.847Z,101295.63
2022-11-14T15:50:13.701Z,101302.84
2022-11-14T15:53:05.136Z,101300.50
2022-11-14T15:55:51.519Z,101298.03
2022-11-14T15:58:37.180Z,101298.97
2022-11-14T16:01:26.114Z,101292.84
2022-11-14T16:04:16.642Z,101304.53
2022-11-14T16:07:02.397Z,101302.03
2022-11-14T16:09:48.515Z,101294.16
2022-11-14T16:12:34.327Z,101295.03
2022-11-14T16:15:21.369Z,101303.06
2022-11-14T16:18:07.001Z,101293.38
2022-11-14T16:20:52.827Z,101307.72
2022-11-14T16:23:39.401Z,101302.53
2022-11-14T16:26:26.371Z,101311.56
2022-11-14T16:29:12.873Z,101317.00
2022-11-14T16:31:58.668Z,101310.97
2022-11-14T16:34:44.729Z,101306.88
2022-11-14T16:37:30.909Z,101311.34
2022-11-14T16:40:26.963Z,101305.34
2022-11-14T16:43:14.484Z,101311.34
2022-11-14T16:46:07.462Z,101310.41
2022-11-14T16:48:55.461Z,101303.31
2022-11-14T16:51:50.450Z,101312.25
2022-11-14T16:54:36.769Z,101319.31
2022-11-14T16:57:23.129Z,101311.44
2022-11-14T17:00:12.400Z,101315.97
2022-11-14T17:02:58.358Z,101323.13
2022-11-14T17:05:45.703Z,101319.84
2022-11-14T17:08:31.901Z,101318.97
2022-11-14T17:11:17.530Z,101306.72
2022-11-14T17:14:03.729Z,101306.94
2022-11-14T17:16:49.746Z,101315.09
2022-11-14T17:19:35.437Z,101304.44
2022-11-14T17:22:21.312Z,101317.78
2022-11-14T17:25:07.305Z,101317.03
2022-11-14T17:27:53.012Z,101314.34
2022-11-14T17:30:42.716Z,101327.78
2022-11-14T17:33:29.126Z,101324.31
2022-11-14T17:36:15.240Z,101327.09
2022-11-14T17:39:01.425Z,101324.44
2022-11-14T17:41:47.258Z,101322.06
2022-11-14T17:44:33.106Z,101321.38
2022-11-14T17:47:20.172Z,101320.25
2022-11-14T17:50:06.609Z,101313.97
2022-11-14T17:52:52.625Z,101317.63
2022-11-14T17:55:38.585Z,101315.25
2022-11-14T17:58:24.991Z,101321.50
2022-11-14T18:01:16.415Z,101318.88
2022-11-14T18:04:06.154Z,101317.94
2022-11-14T18:06:53.335Z,101319.03
2022-11-14T18:09:39.168Z,101309.44
2022-11-14T18:12:24.982Z,101313.00
2022-11-14T18:15:11.088Z,101321.88
2022-11-14T18:17:57.128Z,101325.41
2022-11-14T18:20:43.435Z,101332.59
2022-11-14T18:23:29.538Z,101328.94
2022-11-14T18:26:16.472Z,101337.00
2022-11-14T18:29:02.494Z,101322.06
2022-11-14T18:31:48.451Z,101340.78
2022-11-14T18:34:37.124Z,101339.84
2022-11-14T18:37:23.274Z,101339.06
2022-11-14T18:40:16.093Z,101337.38
2022-11-14T18:43:02.930Z,101338.25
2022-11-14T18:45:48.852Z,101324.88
2022-11-14T18:48:36.167Z,101334.72
2022-11-14T18:51:25.488Z,101329.56
2022-11-14T18:54:13.270Z,101332.16
2022-11-14T18:56:59.097Z,101333.16
2022-11-14T18:59:44.902Z,101326.03
2022-11-14T19:02:31.485Z,101330.53
2022-11-14T19:05:17.540Z,101329.75
2022-11-14T19:08:05.286Z,101326.16
2022-11-14T19:10:51.332Z,101321.00
2022-11-14T19:13:37.089Z,101313.03
2022-11-14T19:16:23.422Z,101322.63
2022-11-14T19:19:09.726Z,101322.59
2022-11-14T19:21:56.657Z,101325.50
2022-11-14T19:24:45.104Z,101312.19
2022-11-14T19:27:32.706Z,101320.28
2022-11-14T19:30:18.606Z,101316.06
2022-11-14T19:33:04.919Z,101326.84
2022-11-14T19:35:50.853Z,101322.41
2022-11-14T19:38:36.900Z,101314.34
2022-11-14T19:41:28.101Z,101314.31
2022-11-14T19:44:14.316Z,101311.72
2022-11-14T19:47:04.619Z,101313.28
2022-11-14T19:49:50.724Z,101306.13
2022-11-14T19:52:36.956Z,101310.59
2022-11-14T19:55:22.895Z,101305.47
2022-11-14T19:58:08.873Z,101309.81
2022-11-14T20:01:02.439Z,101315.00
2022-11-14T20:03:55.013Z,101312.25
2022-11-14T20:06:41.734Z,101302.56
2022-11-14T20:09:27.407Z,101294.66
2022-11-14T20:12:13.532Z,101300.81
2022-11-14T20:14:59.415Z,101291.13
2022-11-14T20:17:46.086Z,101299.22
2022-11-14T20:20:32.039Z,101299.25
2022-11-14T20:23:18.128Z,101300.44
2022-11-14T20:26:10.970Z,101303.19
2022-11-14T20:28:59.281Z,101305.88
2022-11-14T20:31:46.073Z,101304.97
2022-11-14T20:34:32.419Z,101310.28
2022-11-14T20:37:18.749Z,101314.72
2022-11-14T20:40:05.651Z,101308.56
2022-11-14T20:42:52.257Z,101318.34
2022-11-14T20:45:39.144Z,101325.38
2022-11-14T20:48:28.379Z,101320.16
2022-11-14T20:51:21.678Z,101320.16
2022-11-14T20:54:09.248Z,101315.81
2022-11-14T20:56:55.872Z,101316.91
2022-11-14T20:59:43.101Z,101323.13
2022-11-14T21:02:30.441Z,101320.50
2022-11-14T21:05:16.634Z,101320.47
2022-11-14T21:08:02.509Z,101311.63
2022-11-14T21:10:52.194Z,101309.75
2022-11-14T21:13:59.094Z,101317.84
2022-11-14T21:16:45.808Z,101322.44
2022-11-14T21:19:32.077Z,101317.22
2022-11-14T21:22:18.022Z,101314.69
2022-11-14T21:25:24.435Z,101306.78
2022-11-14T21:28:38.985Z,101312.88
2022-11-14T21:32:05.575Z,101309.25
2022-11-14T21:35:05.697Z,101281.94
2022-11-14T21:38:04.221Z,101268.78
2022-11-14T21:40:57.694Z,101281.94
2022-11-14T21:44:03.449Z,101279.41
2022-11-14T21:46:58.248Z,101285.63
2022-11-14T21:50:01.001Z,101267.97
2022-11-14T21:52:48.290Z,101268.72
2022-11-14T21:55:42.415Z,101275.78
2022-11-14T21:58:30.573Z,101276.59
2022-11-14T22:01:38.627Z,101260.91
2022-11-14T22:04:25.269Z,101247.72
2022-11-14T22:07:11.480Z,101253.81
2022-11-14T22:09:57.636Z,101251.88
2022-11-14T22:12:43.341Z,101248.34
2022-11-14T22:15:28.984Z,101242.03
2022-11-14T22:18:15.016Z,101238.69
2022-11-14T22:21:01.322Z,101244.84
2022-11-14T22:23:47.150Z,101238.75
2022-11-14T22:26:36.497Z,101229.84
2022-11-14T22:29:22.624Z,101235.16
2022-11-14T22:32:08.365Z,101229.91
2022-11-14T22:34:53.958Z,101229.16
2022-11-14T22:37:39.810Z,101226.50
2022-11-14T22:40:25.498Z,101225.72
2022-11-14T22:43:11.580Z,101225.16
2022-11-14T22:45:57.438Z,101223.50
2022-11-14T22:48:45.061Z,101226.13
2022-11-14T22:51:31.758Z,101218.25
2022-11-14T22:54:19.319Z,101229.66
2022-11-14T22:57:05.373Z,101212.84
2022-11-14T22:59:51.236Z,101221.75
2022-11-14T23:02:36.947Z,101193.63
2022-11-14T23:05:22.975Z,101215.66
2022-11-14T23:08:08.889Z,101214.78
2022-11-14T23:10:55.156Z,101215.59
2022-11-14T23:13:43.713Z,101211.94
2022-11-14T23:16:33.551Z,101205.09
2022-11-14T23:19:19.720Z,101199.75
2022-11-14T23:22:37.064Z,101195.34
2022-11-14T23:25:24.076Z,101191.81
2022-11-14T23:28:10.185Z,101175.97
2022-11-14T23:30:57.246Z,101162.72
2022-11-14T23:33:43.369Z,101170.84
2022-11-14T23:36:29.150Z,101149.72
2022-11-14T23:39:15.074Z,101172.44
2022-11-14T23:42:00.833Z,101159.19
2022-11-14T23:44:46.855Z,101146.13
2022-11-14T23:47:33.980Z,101168.03
2022-11-14T23:50:20.057Z,101156.59
2022-11-14T23:53:06.038Z,101172.53
2022-11-14T23:55:56.887Z,101171.91
2022-11-14T23:58:43.092Z,101170.06
